createdAt,value
2019-05-17T00:01:32.565Z,93.83
2019-05-17T00:05:37.693Z,94.13
2019-05-17T00:09:42.610Z,94.40
2019-05-17T00:13:48.066Z,94.59
2019-05-17T00:17:52.949Z,94.48
2019-05-17T00:21:57.835Z,94.61
2019-05-17T00:26:02.719Z,94.85
2019-05-17T00:30:09.645Z,95.15
2019-05-17T00:34:16.603Z,95.50
2019-05-17T00:38:21.110Z,95.87
2019-05-17T00:42:26.471Z,96.47
2019-05-17T00:46:31.460Z,96.60
2019-05-17T00:50:37.890Z,97.03
2019-05-17T00:54:43.023Z,97.19
2019-05-17T00:58:47.909Z,97.38
2019-05-17T01:02:52.786Z,97.02
2019-05-17T01:06:57.675Z,96.65
2019-05-17T01:11:02.637Z,96.50
2019-05-17T01:15:08.754Z,96.34
2019-05-17T01:19:13.631Z,96.13
2019-05-17T01:23:18.513Z,96.63
2019-05-17T01:27:23.404Z,96.75
2019-05-17T01:31:28.291Z,95.92
2019-05-17T01:35:33.181Z,95.86
2019-05-17T01:39:38.052Z,95.24
2019-05-17T01:43:42.939Z,94.85
2019-05-17T01:47:47.830Z,94.95
2019-05-17T01:51:52.717Z,94.75
2019-05-17T01:55:57.610Z,94.74
2019-05-17T02:00:03.253Z,94.72
2019-05-17T02:04:09.210Z,94.39
2019-05-17T02:08:14.097Z,93.85
2019-05-17T02:12:19.957Z,94.04
2019-05-17T02:16:26.727Z,93.70
2019-05-17T02:20:31.417Z,93.95
2019-05-17T02:24:37.096Z,94.17
2019-05-17T02:28:42.141Z,94.64
2019-05-17T02:32:48.477Z,94.83
2019-05-17T02:36:53.593Z,95.22
2019-05-17T02:40:58.588Z,95.29
2019-05-17T02:45:04.012Z,95.59
2019-05-17T02:49:08.899Z,96.04
2019-05-17T02:53:13.861Z,96.37
2019-05-17T02:57:18.743Z,96.62
2019-05-17T03:01:23.624Z,96.67
2019-05-17T03:05:28.506Z,97.17
2019-05-17T03:09:33.852Z,97.29
2019-05-17T03:13:38.977Z,97.40
2019-05-17T03:17:44.075Z,97.44
2019-05-17T03:21:49.007Z,97.42
2019-05-17T03:25:53.888Z,97.56
2019-05-17T03:29:58.782Z,97.22
2019-05-17T03:34:06.389Z,96.87
2019-05-17T03:38:13.864Z,97.19
2019-05-17T03:42:17.477Z,96.77
2019-05-17T03:46:23.208Z,96.82
2019-05-17T03:50:28.396Z,96.67
2019-05-17T03:54:33.286Z,97.09
2019-05-17T03:58:38.174Z,96.81
2019-05-17T04:02:44.322Z,96.25
2019-05-17T04:06:52.641Z,96.55
2019-05-17T04:10:56.476Z,95.65
2019-05-17T04:15:03.315Z,95.58
2019-05-17T04:19:07.942Z,95.29
2019-05-17T04:23:13.045Z,95.60
2019-05-17T04:27:18.080Z,95.37
2019-05-17T04:31:23.050Z,95.32
2019-05-17T04:35:32.427Z,95.04
2019-05-17T04:39:35.568Z,95.77
2019-05-17T04:43:42.471Z,95.55
2019-05-17T04:47:47.202Z,95.38
2019-05-17T04:51:52.634Z,95.30
2019-05-17T04:55:57.623Z,95.49
2019-05-17T05:00:04.151Z,95.34
2019-05-17T05:04:09.421Z,95.21
2019-05-17T05:08:14.370Z,94.97
2019-05-17T05:12:19.257Z,95.55
2019-05-17T05:16:24.170Z,95.62
2019-05-17T05:20:29.034Z,94.73
2019-05-17T05:24:33.983Z,95.16
2019-05-17T05:28:38.865Z,94.81
2019-05-17T05:32:43.754Z,94.75
2019-05-17T05:36:48.639Z,94.13
2019-05-17T05:40:53.527Z,94.56
2019-05-17T05:44:58.414Z,95.29
2019-05-17T05:49:03.289Z,94.87
2019-05-17T05:53:08.177Z,95.52
2019-05-17T05:57:13.072Z,95.52
2019-05-17T06:01:17.964Z,95.95
2019-05-17T06:05:22.844Z,95.63
2019-05-17T06:09:27.718Z,95.23
2019-05-17T06:13:32.867Z,94.89
2019-05-17T06:17:37.742Z,94.44
2019-05-17T06:21:42.874Z,93.62
2019-05-17T06:25:47.686Z,94.42
2019-05-17T06:29:52.565Z,93.88
2019-05-17T06:33:58.524Z,94.35
2019-05-17T06:38:03.415Z,94.47
2019-05-17T06:42:08.302Z,94.06
2019-05-17T06:46:13.200Z,94.29
2019-05-17T06:50:18.225Z,93.55
2019-05-17T06:54:23.121Z,92.77
2019-05-17T06:58:28.017Z,92.63
2019-05-17T07:02:35.964Z,92.97
2019-05-17T07:06:40.458Z,92.08
2019-05-17T07:10:45.538Z,91.21
2019-05-17T07:14:50.799Z,90.04
2019-05-17T07:18:56.879Z,90.22
2019-05-17T07:23:01.787Z,90.89
2019-05-17T07:27:06.672Z,90.38
2019-05-17T07:31:11.572Z,91.71
2019-05-17T07:35:16.908Z,90.39
2019-05-17T07:39:21.815Z,91.06
2019-05-17T07:43:26.741Z,91.21
2019-05-17T07:47:31.689Z,90.23
2019-05-17T07:51:36.567Z,90.67
2019-05-17T07:55:41.464Z,90.38
2019-05-17T07:59:46.360Z,90.33
2019-05-17T08:03:51.258Z,89.28
2019-05-17T08:07:57.121Z,89.03
2019-05-17T08:12:02.011Z,88.72
2019-05-17T08:16:06.910Z,88.67
2019-05-17T08:20:12.078Z,88.81
2019-05-17T08:24:16.976Z,90.37
2019-05-17T08:28:21.871Z,89.58
2019-05-17T08:32:26.771Z,90.15
2019-05-17T08:36:31.663Z,88.53
2019-05-17T08:40:36.572Z,88.87
2019-05-17T08:44:41.470Z,88.02
2019-05-17T08:48:46.369Z,87.79
2019-05-17T08:52:51.255Z,85.44
2019-05-17T08:56:56.164Z,85.60
2019-05-17T09:01:01.061Z,83.87
2019-05-17T09:05:09.676Z,83.50
2019-05-17T09:09:13.785Z,82.50
2019-05-17T09:13:19.567Z,81.19
2019-05-17T09:17:24.659Z,79.38
2019-05-17T09:21:31.413Z,79.30
2019-05-17T09:25:36.154Z,77.82
2019-05-17T09:29:41.053Z,78.28
2019-05-17T09:33:45.945Z,78.47
2019-05-17T09:37:50.835Z,77.74
2019-05-17T09:41:55.735Z,74.63
2019-05-17T09:46:01.698Z,71.86
2019-05-17T09:50:09.924Z,71.08
2019-05-17T09:54:15.180Z,70.26
2019-05-17T09:58:21.604Z,70.09
2019-05-17T10:02:26.732Z,68.62
2019-05-17T10:06:31.628Z,67.80
2019-05-17T10:10:36.522Z,67.80
2019-05-17T10:14:41.487Z,66.02
2019-05-17T10:18:46.383Z,66.02
2019-05-17T10:22:51.273Z,66.13
2019-05-17T10:26:56.169Z,66.13
2019-05-17T10:31:02.323Z,65.11
2019-05-17T10:35:07.896Z,64.85
2019-05-17T10:39:12.799Z,61.75
2019-05-17T10:43:17.696Z,60.40
2019-05-17T10:47:22.604Z,59.83
2019-05-17T10:51:29.487Z,60.44
2019-05-17T10:55:34.153Z,62.54
2019-05-17T10:59:39.045Z,62.67
2019-05-17T11:03:43.941Z,59.63
2019-05-17T11:07:50.380Z,57.60
2019-05-17T11:11:55.614Z,57.57
2019-05-17T11:16:00.505Z,55.82
2019-05-17T11:20:08.159Z,56.61
2019-05-17T11:24:13.044Z,59.47
2019-05-17T11:28:17.932Z,57.50
2019-05-17T11:32:22.825Z,59.34
2019-05-17T11:36:27.718Z,58.04
2019-05-17T11:40:32.617Z,60.51
2019-05-17T11:44:37.521Z,59.16
2019-05-17T11:48:42.424Z,60.67
2019-05-17T11:52:47.318Z,60.26
2019-05-17T11:56:52.209Z,58.05
2019-05-17T12:00:57.102Z,56.50
2019-05-17T12:05:02.001Z,58.53
2019-05-17T12:09:07.539Z,58.53
2019-05-17T12:13:12.502Z,57.34
2019-05-17T12:17:17.397Z,54.97
2019-05-17T12:21:22.284Z,54.71
2019-05-17T12:25:27.250Z,56.41
2019-05-17T12:29:32.157Z,55.57
2019-05-17T12:33:37.049Z,55.42
2019-05-17T12:37:42.602Z,54.98
2019-05-17T12:41:47.570Z,54.79
2019-05-17T12:46:00.553Z,54.55
2019-05-17T12:49:59.805Z,54.05
2019-05-17T12:54:04.716Z,54.57
2019-05-17T12:58:09.599Z,52.66
2019-05-17T13:02:14.491Z,51.76
2019-05-17T13:06:19.394Z,51.76
2019-05-17T13:10:24.298Z,51.15
2019-05-17T13:14:29.197Z,49.25
2019-05-17T13:18:34.094Z,50.52
2019-05-17T13:22:38.974Z,49.94
2019-05-17T13:26:43.871Z,51.76
2019-05-17T13:30:48.766Z,52.87
2019-05-17T13:34:54.634Z,53.29
2019-05-17T13:38:59.530Z,54.28
2019-05-17T13:43:04.416Z,53.94
2019-05-17T13:47:09.312Z,53.50
2019-05-17T13:51:14.208Z,53.10
2019-05-17T13:55:19.108Z,53.46
2019-05-17T13:59:24.008Z,52.53
2019-05-17T14:03:28.928Z,52.38
2019-05-17T14:07:33.822Z,51.78
2019-05-17T14:11:38.724Z,52.10
2019-05-17T14:15:43.689Z,50.85
2019-05-17T14:19:48.593Z,51.78
2019-05-17T14:23:53.487Z,53.44
2019-05-17T14:27:58.420Z,51.93
2019-05-17T14:32:03.534Z,50.22
2019-05-17T14:36:08.601Z,49.20
2019-05-17T14:40:13.843Z,48.33
2019-05-17T14:44:18.728Z,48.45
2019-05-17T14:48:23.621Z,49.52
2019-05-17T14:52:28.529Z,49.75
2019-05-17T14:56:33.462Z,50.31
2019-05-17T15:00:38.365Z,48.59
2019-05-17T15:04:43.251Z,48.17
2019-05-17T15:08:49.219Z,48.54
2019-05-17T15:12:55.193Z,49.11
2019-05-17T15:17:00.090Z,50.33
2019-05-17T15:21:04.989Z,50.45
2019-05-17T15:25:10.112Z,52.25
2019-05-17T15:29:15.008Z,51.97
2019-05-17T15:33:19.905Z,51.40
2019-05-17T15:37:24.811Z,51.07
2019-05-17T15:41:29.716Z,50.12
2019-05-17T15:45:34.602Z,50.97
2019-05-17T15:49:39.499Z,50.68
2019-05-17T15:53:44.396Z,50.06
2019-05-17T15:57:49.297Z,50.21
2019-05-17T16:01:54.327Z,50.82
2019-05-17T16:06:00.262Z,50.72
2019-05-17T16:10:09.053Z,49.47
2019-05-17T16:14:13.936Z,50.05
2019-05-17T16:18:18.842Z,49.64
2019-05-17T16:22:23.738Z,49.27
2019-05-17T16:26:28.643Z,50.54
2019-05-17T16:30:33.540Z,50.81
2019-05-17T16:34:38.442Z,49.42
2019-05-17T16:38:43.339Z,50.80
2019-05-17T16:42:48.219Z,50.36
2019-05-17T16:46:53.166Z,49.98
2019-05-17T16:50:58.063Z,49.71
2019-05-17T16:55:05.775Z,49.13
2019-05-17T16:59:11.741Z,50.10
2019-05-17T17:03:16.646Z,50.14
2019-05-17T17:07:21.523Z,50.64
2019-05-17T17:11:26.489Z,51.01
2019-05-17T17:15:31.443Z,50.41
2019-05-17T17:19:36.280Z,51.18
2019-05-17T17:23:42.151Z,51.27
2019-05-17T17:27:47.104Z,51.79
2019-05-17T17:31:52.004Z,50.96
2019-05-17T17:35:56.899Z,51.09
2019-05-17T17:40:01.807Z,51.17
2019-05-17T17:44:06.706Z,51.06
2019-05-17T17:48:11.587Z,51.17
2019-05-17T17:52:16.478Z,51.31
2019-05-17T17:56:21.382Z,51.77
2019-05-17T18:00:26.283Z,53.45
2019-05-17T18:04:31.178Z,54.89
2019-05-17T18:08:36.068Z,55.47
2019-05-17T18:12:40.965Z,55.80
2019-05-17T18:16:45.861Z,55.88
2019-05-17T18:20:50.760Z,56.03
2019-05-17T18:24:55.653Z,56.10
2019-05-17T18:29:00.609Z,56.60
2019-05-17T18:33:06.217Z,56.96
2019-05-17T18:37:11.107Z,57.55
2019-05-17T18:41:16.019Z,58.52
2019-05-17T18:45:21.008Z,59.63
2019-05-17T18:49:25.957Z,60.84
2019-05-17T18:53:30.852Z,61.66
2019-05-17T18:57:35.749Z,62.24
2019-05-17T19:01:40.641Z,63.23
2019-05-17T19:05:45.572Z,63.84
2019-05-17T19:09:50.443Z,64.18
2019-05-17T19:13:55.360Z,64.48
2019-05-17T19:18:00.248Z,65.17
2019-05-17T19:22:05.145Z,66.54
2019-05-17T19:26:10.044Z,67.33
2019-05-17T19:30:16.271Z,68.03
2019-05-17T19:34:21.190Z,68.46
2019-05-17T19:38:26.081Z,69.33
2019-05-17T19:42:30.984Z,70.05
2019-05-17T19:46:35.889Z,70.82
2019-05-17T19:50:40.779Z,71.11
2019-05-17T19:54:45.669Z,71.28
2019-05-17T19:58:50.573Z,71.86
2019-05-17T20:02:55.476Z,73.54
2019-05-17T20:07:00.369Z,74.36
2019-05-17T20:11:05.270Z,74.35
2019-05-17T20:15:17.508Z,74.66
2019-05-17T20:19:17.109Z,74.54
2019-05-17T20:23:22.007Z,73.64
2019-05-17T20:27:26.915Z,73.82
2019-05-17T20:31:31.799Z,74.06
2019-05-17T20:35:36.699Z,73.84
2019-05-17T20:39:41.596Z,73.60
2019-05-17T20:43:46.489Z,74.50
2019-05-17T20:47:51.389Z,75.10
2019-05-17T20:51:56.281Z,75.77
2019-05-17T20:56:01.175Z,76.51
2019-05-17T21:00:09.979Z,76.37
2019-05-17T21:04:14.877Z,76.48
2019-05-17T21:08:19.770Z,76.78
2019-05-17T21:12:24.657Z,76.93
2019-05-17T21:16:29.558Z,76.99
2019-05-17T21:20:34.479Z,77.64
2019-05-17T21:24:39.374Z,77.63
2019-05-17T21:28:47.065Z,77.38
2019-05-17T21:32:50.849Z,77.64
2019-05-17T21:36:55.738Z,77.04
2019-05-17T21:41:00.636Z,77.01
2019-05-17T21:45:06.814Z,76.53
2019-05-17T21:49:11.669Z,76.16
2019-05-17T21:53:16.561Z,76.40
2019-05-17T21:57:21.456Z,77.40
2019-05-17T22:01:27.309Z,77.61
2019-05-17T22:05:32.189Z,78.45
2019-05-17T22:09:37.106Z,78.66
2019-05-17T22:13:41.972Z,78.81
2019-05-17T22:17:46.869Z,78.82
2019-05-17T22:21:51.769Z,79.39
2019-05-17T22:25:56.668Z,79.67
2019-05-17T22:30:01.574Z,80.00
2019-05-17T22:34:06.447Z,80.12
2019-05-17T22:38:11.345Z,80.39
2019-05-17T22:42:16.274Z,80.29
2019-05-17T22:46:35.127Z,80.30
2019-05-17T22:50:27.983Z,80.43
2019-05-17T22:54:32.871Z,80.58
2019-05-17T22:58:37.771Z,80.65
2019-05-17T23:02:42.664Z,80.84
2019-05-17T23:06:48.629Z,81.74
2019-05-17T23:10:53.524Z,82.88
2019-05-17T23:14:58.401Z,83.28
2019-05-17T23:19:09.800Z,83.55
2019-05-17T23:23:15.533Z,84.36
2019-05-17T23:27:20.540Z,85.27
2019-05-17T23:31:25.442Z,85.87
2019-05-17T23:35:30.321Z,85.82
2019-05-17T23:39:35.218Z,85.85
2019-05-17T23:43:40.117Z,85.70
2019-05-17T23:47:45.012Z,85.58
2019-05-17T23:51:49.908Z,86.32
2019-05-17T23:55:54.792Z,86.10
2019-05-17T23:59:59.688Z,85.94
